Time;durP1;ratioP1;P1;durP2;ratioP2;P2;SDS_P1;SDS_P2;PMS_P1;PMS_P2;Temp;Humidity;BMP_temperature;BMP_pressure;BME280_temperature;BME280_humidity;BME280_pressure;Samples;Min_cycle;Max_cycle;Signal;HPM_P1;HPM_P2
2022/08/21 00:01:26;;;;;;;9.48;5.22;;;;;;;13.97;100.00;101634.28;5048607;28;20044;-70
2022/08/21 00:03:52;;;;;;;7.65;4.85;;;;;;;13.82;100.00;101629.91;5053979;28;20385;-70
2022/08/21 00:06:18;;;;;;;7.60;5.15;;;;;;;13.70;100.00;101630.69;5048297;28;20083;-71
2022/08/21 00:08:43;;;;;;;9.80;4.80;;;;;;;13.60;100.00;101632.22;5049907;28;20132;-71
2022/08/21 00:11:09;;;;;;;11.73;6.03;;;;;;;13.71;100.00;101627.94;5047691;28;20050;-71
2022/08/21 00:13:36;;;;;;;9.23;5.15;;;;;;;13.73;100.00;101631.34;5036020;28;20155;-71
2022/08/21 00:16:02;;;;;;;13.77;5.75;;;;;;;13.92;100.00;101636.41;5048136;28;20140;-70
2022/08/21 00:18:28;;;;;;;9.75;5.80;;;;;;;14.12;100.00;101631.56;5050205;28;20047;-71
2022/08/21 00:20:54;;;;;;;8.35;5.55;;;;;;;14.20;100.00;101630.06;5045781;28;20064;-70
2022/08/21 00:23:19;;;;;;;10.57;5.60;;;;;;;14.09;100.00;101626.41;5051793;28;20859;-71
2022/08/21 00:25:45;;;;;;;9.10;5.20;;;;;;;13.95;100.00;101632.66;5054582;28;20033;-70
2022/08/21 00:28:11;;;;;;;8.48;4.88;;;;;;;13.77;100.00;101629.34;5059471;28;20043;-71
2022/08/21 00:30:38;;;;;;;9.07;5.22;;;;;;;13.68;100.00;101627.25;5050886;28;20127;-71
2022/08/21 00:33:04;;;;;;;11.20;5.35;;;;;;;13.67;100.00;101622.84;5056228;28;20044;-71
2022/08/21 00:35:34;;;;;;;8.57;5.22;;;;;;;13.71;100.00;101619.88;5051354;28;20847;-71
2022/08/21 00:38:00;;;;;;;7.18;5.45;;;;;;;13.74;100.00;101614.31;5053512;28;20485;-71
2022/08/21 00:40:33;;;;;;;8.82;5.63;;;;;;;13.71;100.00;101613.66;5053056;28;20032;-71
2022/08/21 00:42:59;;;;;;;11.82;5.30;;;;;;;13.70;100.00;101615.50;5052280;28;20036;-70
2022/08/21 00:45:25;;;;;;;8.30;5.25;;;;;;;13.73;100.00;101620.63;5050425;28;20044;-70
2022/08/21 00:47:51;;;;;;;10.38;5.70;;;;;;;13.58;100.00;101613.56;5050297;28;20024;-71
2022/08/21 00:50:19;;;;;;;6.32;4.80;;;;;;;13.67;100.00;101618.34;5049039;28;20020;-71
2022/08/21 00:52:45;;;;;;;6.95;5.18;;;;;;;13.62;100.00;101616.94;5056974;28;20040;-70
2022/08/21 00:55:11;;;;;;;9.82;4.90;;;;;;;13.59;100.00;101620.66;5054675;28;20036;-71
2022/08/21 00:57:44;;;;;;;8.45;5.00;;;;;;;13.69;100.00;101615.56;5056502;28;20522;-70
2022/08/21 01:00:13;;;;;;;9.55;5.38;;;;;;;13.62;100.00;101611.56;5049139;28;20060;-70
2022/08/21 01:02:39;;;;;;;10.85;5.18;;;;;;;13.70;100.00;101614.59;5053280;28;20036;-70
2022/08/21 01:05:05;;;;;;;11.27;6.40;;;;;;;13.71;100.00;101605.63;5056661;28;20090;-70
2022/08/21 01:07:31;;;;;;;13.18;6.07;;;;;;;13.63;100.00;101607.94;5056784;28;20487;-70
2022/08/21 01:09:56;;;;;;;7.35;5.40;;;;;;;13.65;100.00;101611.34;5052793;28;20040;-70
2022/08/21 01:12:23;;;;;;;7.80;5.72;;;;;;;13.54;100.00;101609.38;5048483;28;20041;-70
2022/08/21 01:14:48;;;;;;;6.55;5.35;;;;;;;13.55;100.00;101605.72;5048781;28;20028;-70
2022/08/21 01:17:15;;;;;;;7.88;5.38;;;;;;;13.42;100.00;101612.84;5056119;28;20040;-70
2022/08/21 01:19:41;;;;;;;11.55;5.60;;;;;;;13.44;100.00;101610.91;5053409;28;20035;-70
2022/08/21 01:22:07;;;;;;;7.13;5.55;;;;;;;13.33;100.00;101616.94;5049932;28;20046;-70
2022/08/21 01:24:32;;;;;;;6.32;4.45;;;;;;;13.24;100.00;101619.34;5048902;28;20259;-71
2022/08/21 01:26:59;;;;;;;9.20;4.70;;;;;;;13.19;100.00;101616.91;5058137;28;20040;-70
2022/08/21 01:29:38;;;;;;;7.45;4.93;;;;;;;13.21;100.00;101618.56;5051753;28;20044;-70
2022/08/21 01:32:07;;;;;;;5.82;4.63;;;;;;;13.33;100.00;101619.63;5049928;28;20637;-70
2022/08/21 01:34:37;;;;;;;8.55;5.25;;;;;;;13.35;100.00;101622.19;5049244;28;20050;-70
2022/08/21 01:37:03;;;;;;;9.60;5.05;;;;;;;13.35;100.00;101631.09;5051580;28;20120;-70
2022/08/21 01:39:29;;;;;;;7.25;4.50;;;;;;;13.27;100.00;101630.72;5044974;28;20036;-70
2022/08/21 01:41:54;;;;;;;6.43;4.60;;;;;;;13.19;100.00;101631.16;5044014;28;20138;-70
2022/08/21 01:44:22;;;;;;;5.50;4.13;;;;;;;13.24;100.00;101624.69;5047873;28;20046;-70
2022/08/21 01:46:48;;;;;;;15.98;5.65;;;;;;;13.20;100.00;101622.19;5049408;28;20055;-70
2022/08/21 01:49:15;;;;;;;5.60;4.45;;;;;;;12.98;100.00;101619.09;5047600;28;20036;-71
2022/08/21 01:51:40;;;;;;;7.25;4.38;;;;;;;12.93;100.00;101619.38;5053150;28;20971;-70
2022/08/21 01:54:05;;;;;;;7.20;4.28;;;;;;;12.94;100.00;101618.41;5046893;28;20040;-71
2022/08/21 01:56:39;;;;;;;7.13;4.38;;;;;;;12.90;100.00;101621.34;5052742;28;20845;-71
2022/08/21 01:59:05;;;;;;;5.93;4.40;;;;;;;13.06;100.00;101613.28;5048511;28;20102;-71
2022/08/21 02:01:31;;;;;;;9.50;4.70;;;;;;;12.97;100.00;101617.38;5041119;28;20481;-70
2022/08/21 02:03:56;;;;;;;7.20;3.63;;;;;;;12.85;100.00;101618.09;5050900;28;20028;-71
2022/08/21 02:06:22;;;;;;;9.07;4.25;;;;;;;12.89;100.00;101614.28;5058247;28;20796;-70
2022/08/21 02:08:48;;;;;;;7.70;4.47;;;;;;;12.83;100.00;101615.53;5052549;28;20062;-71
2022/08/21 02:11:13;;;;;;;5.78;4.53;;;;;;;12.78;100.00;101616.75;5051365;28;20109;-71
2022/08/21 02:13:39;;;;;;;9.35;4.53;;;;;;;12.86;100.00;101612.66;5052360;28;20129;-71
2022/08/21 02:16:06;;;;;;;8.35;4.63;;;;;;;12.86;100.00;101611.81;5058437;28;20055;-71
2022/08/21 02:18:32;;;;;;;7.07;4.43;;;;;;;12.70;100.00;101609.16;5042401;28;20106;-71
2022/08/21 02:20:57;;;;;;;5.97;4.60;;;;;;;12.75;100.00;101608.91;5051306;28;20058;-71
2022/08/21 02:23:23;;;;;;;8.02;4.90;;;;;;;12.69;100.00;101611.00;5057357;28;20021;-71
2022/08/21 02:25:49;;;;;;;6.72;5.10;;;;;;;12.63;100.00;101607.84;5052438;28;20131;-71
2022/08/21 02:28:15;;;;;;;6.97;4.05;;;;;;;12.72;100.00;101607.28;5053107;28;20090;-71
2022/08/21 02:30:45;;;;;;;7.25;4.40;;;;;;;12.77;100.00;101597.16;5058166;28;20087;-71
2022/08/21 02:33:12;;;;;;;7.10;4.55;;;;;;;12.83;100.00;101602.13;5055040;28;20603;-71
2022/08/21 02:35:38;;;;;;;7.68;4.80;;;;;;;12.78;100.00;101595.34;5056441;28;20040;-71
2022/08/21 02:38:08;;;;;;;8.43;4.85;;;;;;;12.52;100.00;101594.25;5054136;28;20866;-71
2022/08/21 02:40:37;;;;;;;7.13;4.28;;;;;;;12.55;100.00;101599.38;5053499;28;20113;-70
2022/08/21 02:43:04;;;;;;;4.75;4.07;;;;;;;12.52;100.00;101591.56;5053267;28;20032;-71
2022/08/21 02:45:30;;;;;;;8.55;4.05;;;;;;;12.46;100.00;101592.78;5053846;28;20064;-71
2022/08/21 02:47:59;;;;;;;6.18;4.43;;;;;;;12.47;100.00;101593.66;5058251;28;20111;-70
2022/08/21 02:50:34;;;;;;;7.10;4.45;;;;;;;12.53;100.00;101587.94;5051150;28;20032;-71
2022/08/21 02:53:00;;;;;;;7.45;4.90;;;;;;;12.41;100.00;101593.06;5059197;28;20024;-71
2022/08/21 02:55:28;;;;;;;7.00;4.82;;;;;;;12.42;100.00;101596.59;5061965;28;20028;-70
2022/08/21 02:57:55;;;;;;;6.65;4.85;;;;;;;12.39;100.00;101591.41;5056023;28;20028;-71
2022/08/21 03:00:22;;;;;;;7.43;4.85;;;;;;;12.29;100.00;101595.59;5054327;28;20086;-71
2022/08/21 03:02:48;;;;;;;6.35;4.53;;;;;;;12.31;100.00;101593.69;5058194;28;20032;-71
2022/08/21 03:05:15;;;;;;;8.27;4.22;;;;;;;12.26;100.00;101593.97;5052372;28;20037;-70
2022/08/21 03:07:41;;;;;;;6.05;4.80;;;;;;;12.34;100.00;101585.47;5054950;28;20035;-71
2022/08/21 03:10:08;;;;;;;7.03;4.43;;;;;;;12.45;100.00;101588.41;5053274;28;20433;-71
2022/08/21 03:12:35;;;;;;;6.45;4.68;;;;;;;12.44;100.00;101587.50;5055812;28;20032;-70
2022/08/21 03:15:02;;;;;;;6.38;5.05;;;;;;;12.36;100.00;101579.09;5054415;28;20044;-71
2022/08/21 03:17:27;;;;;;;6.70;4.38;;;;;;;12.36;100.00;101576.41;5053694;28;20044;-71
2022/08/21 03:19:53;;;;;;;5.88;4.38;;;;;;;12.24;100.00;101578.94;5058374;28;20050;-71
2022/08/21 03:22:18;;;;;;;7.75;4.70;;;;;;;12.11;100.00;101570.78;5049861;28;20036;-71
2022/08/21 03:24:45;;;;;;;13.05;5.15;;;;;;;11.99;100.00;101577.69;5051367;28;20036;-71
2022/08/21 03:27:12;;;;;;;5.43;4.35;;;;;;;12.00;100.00;101576.75;5059740;28;20039;-71
2022/08/21 03:29:38;;;;;;;6.63;4.93;;;;;;;12.00;100.00;101576.75;5049702;28;20067;-70
2022/08/21 03:32:04;;;;;;;7.30;5.68;;;;;;;11.95;100.00;101578.84;5055041;28;20044;-71
2022/08/21 03:34:29;;;;;;;8.07;4.82;;;;;;;11.93;100.00;101584.25;5058582;28;20050;-71
2022/08/21 03:36:55;;;;;;;9.55;6.35;;;;;;;11.93;100.00;101575.38;5052848;28;20493;-71
2022/08/21 03:39:20;;;;;;;9.10;5.32;;;;;;;12.14;100.00;101575.94;5058777;28;20039;-71
2022/08/21 03:41:47;;;;;;;7.55;5.53;;;;;;;12.10;100.00;101577.97;5052593;28;20040;-70
2022/08/21 03:44:12;;;;;;;8.68;4.78;;;;;;;12.04;100.00;101570.25;5052018;28;20044;-71
2022/08/21 03:46:38;;;;;;;7.45;4.43;;;;;;;12.06;100.00;101570.19;5062263;28;20044;-70
2022/08/21 03:49:04;;;;;;;6.63;5.15;;;;;;;12.13;100.00;101575.09;5053880;28;20098;-71
2022/08/21 03:51:32;;;;;;;7.15;5.35;;;;;;;12.14;100.00;101583.97;5050046;28;20050;-71
2022/08/21 03:53:57;;;;;;;6.60;4.75;;;;;;;12.26;100.00;101580.59;5051627;28;20040;-71
2022/08/21 03:56:23;;;;;;;9.98;5.35;;;;;;;12.25;100.00;101578.88;5049602;28;20029;-70
2022/08/21 03:58:49;;;;;;;9.63;5.30;;;;;;;12.07;100.00;101582.59;5049027;28;20040;-71
2022/08/21 04:01:14;;;;;;;8.52;4.82;;;;;;;11.83;100.00;101579.53;5051867;28;20032;-71
2022/08/21 04:03:40;;;;;;;6.57;5.05;;;;;;;11.83;100.00;101576.84;5049100;28;20036;-71
2022/08/21 04:06:06;;;;;;;5.50;4.95;;;;;;;11.72;100.00;101576.56;5056782;28;20094;-71
2022/08/21 04:08:31;;;;;;;4.20;3.60;;;;;;;11.78;100.00;101584.22;5054071;28;20040;-71
2022/08/21 04:10:58;;;;;;;5.80;3.92;;;;;;;11.85;100.00;101573.16;5049466;28;20095;-72
2022/08/21 04:13:24;;;;;;;7.30;4.25;;;;;;;11.92;100.00;101570.97;5032398;28;20055;-70
2022/08/21 04:15:50;;;;;;;9.98;5.25;;;;;;;12.05;100.00;101573.78;5053957;28;20066;-70
2022/08/21 04:18:16;;;;;;;9.15;5.35;;;;;;;12.21;100.00;101571.13;5053941;28;20113;-70
2022/08/21 04:20:43;;;;;;;10.27;5.93;;;;;;;12.02;100.00;101577.53;5049595;28;20860;-71
2022/08/21 04:23:08;;;;;;;6.25;5.00;;;;;;;12.00;100.00;101574.09;5054105;28;20040;-71
2022/08/21 04:25:35;;;;;;;8.50;6.05;;;;;;;12.09;100.00;101578.03;5052534;28;20035;-71
2022/08/21 04:28:01;;;;;;;12.00;6.78;;;;;;;11.96;100.00;101572.53;5047869;28;20803;-71
2022/08/21 04:30:27;;;;;;;11.60;7.15;;;;;;;11.90;100.00;101568.41;5053446;28;20044;-71
2022/08/21 04:32:52;;;;;;;9.85;6.82;;;;;;;12.05;100.00;101572.00;5050019;28;20040;-71
2022/08/21 04:35:21;;;;;;;13.95;6.93;;;;;;;12.13;100.00;101579.56;5050664;28;20048;-71
2022/08/21 04:37:47;;;;;;;13.32;8.23;;;;;;;12.15;100.00;101575.88;5061094;28;20029;-71
2022/08/21 04:40:15;;;;;;;9.07;6.45;;;;;;;12.29;100.00;101574.19;5049906;28;20036;-70
2022/08/21 04:42:55;;;;;;;8.73;6.00;;;;;;;12.30;100.00;101575.91;5050098;28;20830;-71
2022/08/21 04:45:42;;;;;;;10.80;6.63;;;;;;;12.37;100.00;101586.16;5048761;28;20041;-71
2022/08/21 04:48:11;;;;;;;10.40;6.25;;;;;;;12.38;100.00;101568.31;5038451;28;20125;-71
2022/08/21 04:50:47;;;;;;;14.32;6.05;;;;;;;12.49;100.00;101575.69;5053201;28;20036;-71
2022/08/21 04:53:20;;;;;;;9.40;6.57;;;;;;;12.50;100.00;101580.06;5048679;28;20824;-71
2022/08/21 04:55:47;;;;;;;6.65;5.20;;;;;;;12.50;100.00;101570.25;5051738;28;20040;-71
2022/08/21 04:58:14;;;;;;;12.27;6.72;;;;;;;12.49;100.00;101573.00;5054094;28;20052;-71
2022/08/21 05:00:41;;;;;;;12.40;6.22;;;;;;;12.62;100.00;101580.22;5048623;28;20037;-71
2022/08/21 05:03:09;;;;;;;13.63;6.53;;;;;;;12.76;100.00;101578.53;5037310;28;20048;-71
2022/08/21 05:05:35;;;;;;;10.88;6.60;;;;;;;12.74;100.00;101569.72;5058098;28;20788;-71
2022/08/21 05:08:02;;;;;;;10.82;6.00;;;;;;;12.87;100.00;101574.25;5054045;28;20020;-71
2022/08/21 05:10:28;;;;;;;9.93;6.60;;;;;;;12.93;100.00;101562.28;5050671;28;20036;-70
2022/08/21 05:12:54;;;;;;;14.20;6.68;;;;;;;12.98;100.00;101565.53;5036207;28;20047;-71
2022/08/21 05:15:20;;;;;;;13.75;6.72;;;;;;;13.09;100.00;101563.06;5056736;28;20779;-71
2022/08/21 05:17:46;;;;;;;12.82;6.63;;;;;;;13.23;100.00;101554.19;5014774;28;20036;-71
2022/08/21 05:20:13;;;;;;;8.82;6.43;;;;;;;13.17;100.00;101563.44;5047142;28;20043;-71
2022/08/21 05:22:38;;;;;;;9.75;6.40;;;;;;;13.20;100.00;101557.00;5047748;28;20044;-70
2022/08/21 05:25:05;;;;;;;11.27;6.53;;;;;;;13.33;100.00;101552.66;5049195;28;20033;-71
2022/08/21 05:27:31;;;;;;;12.65;6.85;;;;;;;13.49;100.00;101552.53;5060682;28;20117;-71
2022/08/21 05:29:57;;;;;;;13.77;7.13;;;;;;;13.58;100.00;101553.75;5048037;28;20036;-71
2022/08/21 05:32:23;;;;;;;12.27;6.55;;;;;;;13.83;100.00;101556.56;5047822;28;20035;-70
2022/08/21 05:34:48;;;;;;;11.80;6.78;;;;;;;13.86;100.00;101558.19;5049408;28;20043;-71
2022/08/21 05:37:13;;;;;;;11.27;6.80;;;;;;;13.93;100.00;101567.53;5046824;28;20198;-71
2022/08/21 05:39:39;;;;;;;8.93;6.13;;;;;;;13.98;100.00;101573.47;5045528;28;20040;-71
2022/08/21 05:42:05;;;;;;;10.35;6.10;;;;;;;14.09;100.00;101578.97;5047483;28;20040;-71
2022/08/21 05:44:31;;;;;;;13.02;7.30;;;;;;;14.52;100.00;101580.66;5048928;28;20037;-71
2022/08/21 05:47:03;;;;;;;14.82;7.20;;;;;;;14.71;100.00;101583.78;5047672;28;20032;-71
2022/08/21 05:49:28;;;;;;;;;;;;;;;14.87;100.00;101580.91;5055191;28;20029;-71
2022/08/21 05:51:54;;;;;;;18.00;8.02;;;;;;;15.03;100.00;101585.09;5050197;28;20551;-71
2022/08/21 05:54:19;;;;;;;16.13;7.65;;;;;;;14.83;100.00;101590.13;5037538;28;20045;-71
2022/08/21 05:56:45;;;;;;;17.70;8.25;;;;;;;15.11;100.00;101594.41;5056185;28;20028;-71
2022/08/21 05:59:10;;;;;;;17.05;9.20;;;;;;;15.29;100.00;101583.22;5052190;28;20083;-71
2022/08/21 06:01:36;;;;;;;15.75;10.65;;;;;;;15.60;100.00;101577.47;5053800;28;20036;-71
2022/08/21 06:04:01;;;;;;;17.73;10.05;;;;;;;15.72;100.00;101579.31;5046552;28;20032;-71
2022/08/21 06:06:27;;;;;;;21.75;13.32;;;;;;;15.77;100.00;101580.69;5054631;28;20469;-70
2022/08/21 06:08:53;;;;;;;22.30;14.43;;;;;;;16.20;100.00;101580.19;5053213;28;20768;-71
2022/08/21 06:11:18;;;;;;;20.58;13.88;;;;;;;16.43;100.00;101583.84;5046423;28;20032;-71
2022/08/21 06:13:44;;;;;;;26.15;14.35;;;;;;;16.26;100.00;101587.78;5052284;28;20045;-71
2022/08/21 06:16:15;;;;;;;23.05;15.30;;;;;;;16.54;100.00;101580.31;5031857;28;20048;-71
2022/08/21 06:18:41;;;;;;;27.13;15.93;;;;;;;16.71;100.00;101579.91;5053039;28;20106;-71
2022/08/21 06:21:08;;;;;;;25.45;15.57;;;;;;;16.80;100.00;101587.28;5055901;28;20912;-71
2022/08/21 06:23:34;;;;;;;25.08;15.15;;;;;;;16.85;100.00;101576.13;5050807;28;20755;-71
2022/08/21 06:26:05;;;;;;;25.98;16.25;;;;;;;17.14;100.00;101581.94;5054052;28;20040;-71
2022/08/21 06:28:31;;;;;;;22.95;14.50;;;;;;;17.32;100.00;101582.31;5051151;28;20025;-71
2022/08/21 06:30:56;;;;;;;22.75;15.52;;;;;;;17.25;100.00;101584.63;5052395;28;20043;-71
2022/08/21 06:33:23;;;;;;;24.70;15.35;;;;;;;17.29;100.00;101586.09;5050187;28;20028;-71
2022/08/21 06:35:49;;;;;;;22.15;14.55;;;;;;;17.52;100.00;101578.00;5059737;28;20716;-71
2022/08/21 06:38:15;;;;;;;23.50;14.77;;;;;;;18.04;99.38;101579.16;5049342;28;20043;-72
2022/08/21 06:40:40;;;;;;;23.08;13.95;;;;;;;17.95;96.85;101583.47;5052905;28;20028;-72
2022/08/21 06:43:08;;;;;;;25.00;15.32;;;;;;;18.27;98.50;101575.41;5051635;28;20037;-71
2022/08/21 06:45:34;;;;;;;25.02;14.05;;;;;;;18.46;95.11;101577.38;5054274;28;20032;-72
2022/08/21 06:48:00;;;;;;;20.42;13.73;;;;;;;18.51;94.26;101577.00;5048701;28;20070;-72
2022/08/21 06:50:25;;;;;;;21.90;15.15;;;;;;;19.47;92.30;101567.75;5055310;28;20086;-72
2022/08/21 06:52:59;;;;;;;22.58;13.80;;;;;;;19.40;90.31;101571.00;5051205;28;20033;-72
2022/08/21 06:55:25;;;;;;;20.65;13.48;;;;;;;19.94;86.75;101576.19;5053592;28;20028;-71
2022/08/21 06:57:51;;;;;;;18.42;13.30;;;;;;;19.99;86.35;101573.91;5054405;28;20042;-72
2022/08/21 07:00:17;;;;;;;22.02;12.73;;;;;;;19.46;89.00;101577.72;5048974;28;20044;-72
2022/08/21 07:02:42;;;;;;;20.42;12.48;;;;;;;20.12;86.23;101575.31;5047256;28;20048;-72
2022/08/21 07:05:08;;;;;;;19.17;11.93;;;;;;;20.58;82.83;101579.22;5043879;28;20037;-71
2022/08/21 07:07:33;;;;;;;19.35;10.75;;;;;;;20.12;82.91;101569.06;5045595;28;20039;-72
2022/08/21 07:09:59;;;;;;;21.98;11.38;;;;;;;20.25;83.03;101574.22;5046691;28;20040;-72
2022/08/21 07:12:25;;;;;;;18.30;10.88;;;;;;;21.32;82.30;101580.34;5043174;28;20056;-72
2022/08/21 07:14:51;;;;;;;18.58;11.20;;;;;;;21.12;79.41;101580.38;5049946;28;21200;-72
2022/08/21 07:17:17;;;;;;;23.00;10.63;;;;;;;20.77;81.96;101580.19;5013169;28;20909;-71
2022/08/21 07:19:42;;;;;;;22.50;10.43;;;;;;;20.64;81.21;101577.78;5051084;28;20082;-71
2022/08/21 07:22:08;;;;;;;15.38;8.80;;;;;;;20.76;82.17;101582.03;5050793;28;20041;-72
2022/08/21 07:24:33;;;;;;;14.50;8.65;;;;;;;20.61;81.14;101578.91;5037444;28;20054;-70
2022/08/21 07:26:59;;;;;;;25.52;9.27;;;;;;;21.77;78.99;101582.25;5017064;28;20044;-71
2022/08/21 07:29:24;;;;;;;19.52;7.97;;;;;;;21.15;77.49;101574.66;5052751;28;20043;-70
2022/08/21 07:31:50;;;;;;;15.07;8.02;;;;;;;21.70;76.70;101569.28;5027819;28;20041;-71
2022/08/21 07:34:15;;;;;;;15.23;7.80;;;;;;;22.34;75.28;101561.13;5029447;28;20033;-71
2022/08/21 07:36:41;;;;;;;19.20;7.88;;;;;;;22.19;73.69;101566.28;5031967;28;20874;-71
2022/08/21 07:39:07;;;;;;;14.93;7.63;;;;;;;21.44;74.70;101558.28;5061049;28;20043;-72
2022/08/21 07:41:34;;;;;;;12.13;6.47;;;;;;;21.68;73.27;101559.56;5060600;28;20105;-72
2022/08/21 07:43:59;;;;;;;19.77;6.88;;;;;;;21.92;74.64;101562.56;5054376;28;20131;-71
2022/08/21 07:46:26;;;;;;;20.27;7.88;;;;;;;21.65;73.99;101559.91;5046704;28;20032;-71
2022/08/21 07:48:52;;;;;;;14.98;6.78;;;;;;;21.85;74.93;101558.78;5052953;28;20127;-72
2022/08/21 07:51:20;;;;;;;17.65;6.70;;;;;;;21.90;74.17;101545.59;5049281;28;20020;-71
2022/08/21 07:53:53;;;;;;;22.23;7.20;;;;;;;21.79;75.60;101553.06;5055020;28;20675;-71
2022/08/21 07:56:19;;;;;;;19.60;6.75;;;;;;;22.23;73.50;101540.50;5049284;28;20044;-71
2022/08/21 07:58:45;;;;;;;12.60;6.63;;;;;;;22.06;76.93;101546.75;5045778;28;20052;-71
2022/08/21 08:01:11;;;;;;;16.05;5.57;;;;;;;21.81;76.40;101545.66;5047684;28;20455;-70
2022/08/21 08:03:38;;;;;;;23.05;6.82;;;;;;;21.57;77.94;101547.06;5051684;28;20903;-70
2022/08/21 08:06:04;;;;;;;14.02;5.80;;;;;;;22.37;74.49;101545.38;5056141;28;20077;-71
2022/08/21 08:08:31;;;;;;;16.90;5.47;;;;;;;22.77;69.96;101554.00;5051010;28;20051;-71
2022/08/21 08:10:58;;;;;;;10.90;5.50;;;;;;;23.17;71.21;101545.28;5060320;28;20042;-71
2022/08/21 08:13:24;;;;;;;13.32;5.22;;;;;;;22.03;71.96;101549.78;5050507;28;20051;-71
2022/08/21 08:15:51;;;;;;;14.38;5.63;;;;;;;21.32;75.01;101551.34;5048649;28;20036;-71
2022/08/21 08:18:16;;;;;;;16.75;5.55;;;;;;;21.70;74.75;101557.59;5049994;28;20044;-72
2022/08/21 08:20:42;;;;;;;12.25;6.07;;;;;;;21.74;73.31;101556.28;5056163;28;20036;-71
2022/08/21 08:23:15;;;;;;;17.23;6.97;;;;;;;21.18;75.03;101560.78;5036616;28;20098;-72
2022/08/21 08:25:41;;;;;;;12.07;6.15;;;;;;;20.82;79.05;101561.63;5048338;28;20062;-71
2022/08/21 08:28:06;;;;;;;13.95;6.43;;;;;;;21.09;81.29;101558.97;5053823;28;20068;-70
2022/08/21 08:30:32;;;;;;;13.30;6.10;;;;;;;21.98;80.56;101547.50;5047638;28;20052;-71
2022/08/21 08:32:59;;;;;;;18.17;7.13;;;;;;;22.22;75.25;101545.06;5034452;28;20075;-71
2022/08/21 08:35:25;;;;;;;17.60;6.50;;;;;;;21.62;77.59;101543.91;5051868;28;20916;-71
2022/08/21 08:37:51;;;;;;;15.68;7.03;;;;;;;22.15;77.14;101545.88;5040399;28;20389;-70
2022/08/21 08:40:31;;;;;;;21.17;7.20;;;;;;;22.78;76.95;101547.53;5033788;28;20037;-70
2022/08/21 08:42:57;;;;;;;14.48;6.22;;;;;;;22.71;74.25;101537.31;5060866;28;20054;-70
2022/08/21 08:45:26;;;;;;;12.50;6.53;;;;;;;21.98;76.28;101533.94;5051403;28;20811;-70
2022/08/21 08:48:05;;;;;;;18.05;7.05;;;;;;;22.38;77.41;101540.78;5047100;28;20040;-70
2022/08/21 08:51:14;;;;;;;16.60;7.15;;;;;;;22.91;75.04;101537.13;5050854;28;20048;-71
2022/08/21 08:54:02;;;;;;;17.85;7.30;;;;;;;22.56;74.79;101528.03;4982597;28;20052;-70
2022/08/21 08:56:31;;;;;;;18.23;7.18;;;;;;;22.63;75.83;101523.66;4979693;28;20081;-71
2022/08/21 08:59:06;;;;;;;16.23;6.40;;;;;;;22.40;77.04;101522.47;4976735;28;20044;-72
2022/08/21 09:01:32;;;;;;;17.00;6.35;;;;;;;22.50;76.06;101531.38;4964381;28;20046;-70
2022/08/21 09:03:58;;;;;;;17.13;7.13;;;;;;;22.07;75.68;101534.88;4957502;28;20083;-70
2022/08/21 09:06:53;;;;;;;18.50;7.20;;;;;;;22.60;78.01;101539.44;4959633;28;21005;-72
2022/08/21 09:09:18;;;;;;;14.45;6.20;;;;;;;23.04;76.30;101536.69;4961746;28;20053;-72
2022/08/21 09:12:08;;;;;;;13.88;6.95;;;;;;;22.90;73.70;101528.13;4945804;28;20299;-71
2022/08/21 09:14:36;;;;;;;11.60;6.00;;;;;;;23.11;74.24;101535.03;4961139;28;20042;-72
2022/08/21 09:17:27;;;;;;;20.55;7.47;;;;;;;23.42;72.85;101532.63;4965770;28;20037;-71
2022/08/21 09:20:01;;;;;;;20.33;6.47;;;;;;;23.48;73.22;101530.09;4964599;28;20042;-71
2022/08/21 09:22:50;;;;;;;12.55;4.60;;;;;;;23.50;71.80;101527.22;4964683;28;20039;-71
2022/08/21 09:25:30;;;;;;;12.60;5.57;;;;;;;23.67;72.12;101520.81;5007721;28;20171;-70
2022/08/21 09:27:56;;;;;;;14.73;5.70;;;;;;;23.45;71.71;101516.81;5011521;28;20047;-70
2022/08/21 09:30:30;;;;;;;12.32;4.68;;;;;;;23.40;69.22;101524.63;5006245;28;20041;-70
2022/08/21 09:32:56;;;;;;;12.73;4.15;;;;;;;23.50;70.62;101521.78;5022279;28;20040;-71
2022/08/21 09:35:24;;;;;;;14.10;3.45;;;;;;;23.07;68.22;101518.19;5017231;28;20451;-69
2022/08/21 09:37:54;;;;;;;13.27;3.88;;;;;;;23.52;69.17;101511.56;5012090;28;20041;-72
2022/08/21 09:40:40;;;;;;;10.95;3.83;;;;;;;23.93;69.29;101501.63;5018990;28;20669;-73
2022/08/21 09:43:11;;;;;;;9.75;3.83;;;;;;;23.45;69.66;101516.81;5009274;28;20044;-69
2022/08/21 09:45:38;;;;;;;13.90;4.28;;;;;;;22.87;69.92;101514.81;5010752;28;20037;-72
2022/08/21 09:48:24;;;;;;;9.82;3.45;;;;;;;23.77;70.85;101520.69;5012417;28;20041;-70
2022/08/21 09:50:51;;;;;;;14.18;3.47;;;;;;;24.07;65.58;101516.47;5014802;28;20965;-71
2022/08/21 09:53:27;;;;;;;12.52;3.83;;;;;;;24.08;66.40;101520.03;5012105;28;20107;-69
2022/08/21 09:58:45;;;;;;;9.40;4.18;;;;;;;23.99;67.27;101528.19;5037107;28;20062;-71
2022/08/21 10:01:23;;;;;;;11.73;3.58;;;;;;;24.35;64.79;101527.91;5044713;28;20055;-71
2022/08/21 10:04:01;;;;;;;10.70;3.40;;;;;;;24.37;63.50;101517.69;5049546;28;20043;-70
2022/08/21 10:06:28;;;;;;;12.57;3.40;;;;;;;24.79;64.39;101525.66;5056613;28;20031;-71
2022/08/21 10:09:23;;;;;;;8.20;2.90;;;;;;;24.29;62.21;101521.25;5033414;28;20317;-70
2022/08/21 10:12:14;;;;;;;14.38;3.97;;;;;;;23.15;65.08;101523.66;5032953;28;20080;-70
2022/08/21 10:14:47;;;;;;;8.68;3.00;;;;;;;23.17;65.60;101524.34;5050242;28;20090;-69
2022/08/21 10:17:27;;;;;;;9.63;2.63;;;;;;;23.38;64.69;101517.63;5039707;28;20052;-71
2022/08/21 10:20:14;;;;;;;10.50;2.83;;;;;;;23.27;65.80;101519.63;5052399;28;20128;-70
2022/08/21 10:23:01;;;;;;;5.70;2.72;;;;;;;23.99;63.14;101519.19;5057581;28;20076;-71
2022/08/21 10:25:51;;;;;;;9.38;2.40;;;;;;;25.00;60.63;101516.94;5043875;28;20078;-71
2022/08/21 10:28:32;;;;;;;8.90;2.17;;;;;;;25.61;58.91;101519.09;5048056;28;20036;-73
2022/08/21 10:31:13;;;;;;;8.05;2.25;;;;;;;24.74;59.61;101522.59;5034132;28;20035;-71
2022/08/21 10:33:54;;;;;;;11.32;3.45;;;;;;;25.16;58.24;101520.66;5055024;28;20168;-71
2022/08/21 10:36:35;;;;;;;12.90;2.30;;;;;;;25.49;60.60;101504.97;5032863;28;20109;-72
2022/08/21 10:39:13;;;;;;;11.82;2.60;;;;;;;25.70;58.42;101498.88;5031110;28;20028;-71
2022/08/21 10:41:41;;;;;;;7.38;2.38;;;;;;;25.71;56.00;101506.91;5025982;28;20040;-70
2022/08/21 10:44:44;;;;;;;5.97;1.67;;;;;;;26.36;57.31;101497.38;5033517;28;20105;-72
2022/08/21 10:47:24;;;;;;;7.15;2.30;;;;;;;26.76;53.94;101498.06;5041774;28;20052;-71
2022/08/21 10:49:54;;;;;;;10.07;2.38;;;;;;;26.21;53.70;101504.69;5047361;28;20044;-72
2022/08/21 10:52:45;;;;;;;7.18;2.40;;;;;;;25.53;55.59;101512.63;5030894;28;20047;-71
2022/08/21 10:55:21;;;;;;;8.88;2.08;;;;;;;26.00;53.90;101502.63;5048294;28;20128;-72
2022/08/21 10:57:57;;;;;;;11.02;2.67;;;;;;;26.05;55.36;101503.78;5052353;28;20536;-71
2022/08/21 11:00:33;;;;;;;6.13;2.03;;;;;;;25.28;53.73;101517.34;5044775;28;20345;-71
2022/08/21 11:03:10;;;;;;;12.95;2.63;;;;;;;24.92;56.55;101524.28;5051154;28;20039;-71
2022/08/21 11:05:41;;;;;;;11.02;2.03;;;;;;;25.22;56.67;101519.94;5053380;28;20040;-71
2022/08/21 11:08:12;;;;;;;9.10;2.90;;;;;;;25.52;56.12;101515.53;5050730;28;20110;-71
2022/08/21 11:10:47;;;;;;;13.55;2.30;;;;;;;25.73;56.41;101514.91;5032527;28;20040;-71
2022/08/21 11:13:25;;;;;;;7.55;2.15;;;;;;;26.00;53.00;101508.09;5049634;28;20036;-71
2022/08/21 11:15:54;;;;;;;6.85;2.25;;;;;;;26.18;52.40;101510.53;5048947;28;20035;-71
2022/08/21 11:18:44;;;;;;;7.78;1.98;;;;;;;26.28;52.88;101506.50;5025698;28;20040;-72
2022/08/21 11:21:48;;;;;;;10.88;2.40;;;;;;;25.22;53.08;101506.31;5065309;27;20041;-71
2022/08/21 11:24:23;;;;;;;7.53;1.50;;;;;;;25.73;51.75;101503.97;5053151;28;20035;-71
2022/08/21 11:27:10;;;;;;;7.88;2.33;;;;;;;26.15;51.06;101505.41;5051181;28;20370;-70